sensor_id;sensor_type;location;lat;lon;timestamp;pressure;altitude;pressure_sealevel;temperature;humidity
65997;BME280;52765;52.258;21.052;2022-09-09T00:00:22;100408.13;;;13.80;99.78
65997;BME280;52765;52.258;21.052;2022-09-09T00:03:11;100425.50;;;13.94;100.00
65997;BME280;52765;52.258;21.052;2022-09-09T00:08:19;100412.88;;;13.78;100.00
65997;BME280;52765;52.258;21.052;2022-09-09T00:10:51;100400.94;;;13.64;100.00
65997;BME280;52765;52.258;21.052;2022-09-09T00:13:27;100396.38;;;13.64;100.00
65997;BME280;52765;52.258;21.052;2022-09-09T00:16:21;100424.72;;;13.77;100.00
65997;BME280;52765;52.258;21.052;2022-09-09T00:21:35;100401.03;;;13.39;100.00
65997;BME280;52765;52.258;21.052;2022-09-09T00:24:09;100417.44;;;13.38;100.00
65997;BME280;52765;52.258;21.052;2022-09-09T00:26:38;100407.44;;;13.38;100.00
65997;BME280;52765;52.258;21.052;2022-09-09T00:31:49;100395.97;;;13.36;100.00
65997;BME280;52765;52.258;21.052;2022-09-09T00:34:23;100403.72;;;13.31;100.00
65997;BME280;52765;52.258;21.052;2022-09-09T00:36:52;100404.91;;;13.37;100.00
65997;BME280;52765;52.258;21.052;2022-09-09T00:39:34;100385.47;;;13.33;100.00
65997;BME280;52765;52.258;21.052;2022-09-09T00:42:14;100391.38;;;13.28;100.00
65997;BME280;52765;52.258;21.052;2022-09-09T00:44:53;100383.25;;;13.28;100.00
65997;BME280;52765;52.258;21.052;2022-09-09T00:48:01;100396.63;;;13.38;100.00
65997;BME280;52765;52.258;21.052;2022-09-09T00:51:02;100380.91;;;13.25;100.00
65997;BME280;52765;52.258;21.052;2022-09-09T00:54:28;100396.78;;;13.37;100.00
65997;BME280;52765;52.258;21.052;2022-09-09T00:56:31;100390.88;;;13.25;100.00
65997;BME280;52765;52.258;21.052;2022-09-09T00:59:16;100391.22;;;13.30;100.00
65997;BME280;52765;52.258;21.052;2022-09-09T01:01:46;100363.03;;;13.08;100.00
65997;BME280;52765;52.258;21.052;2022-09-09T01:04:22;100387.00;;;13.27;100.00
65997;BME280;52765;52.258;21.052;2022-09-09T01:06:56;100382.13;;;13.14;100.00
65997;BME280;52765;52.258;21.052;2022-09-09T01:09:33;100363.06;;;13.00;100.00
65997;BME280;52765;52.258;21.052;2022-09-09T01:12:40;100391.41;;;13.12;100.00
65997;BME280;52765;52.258;21.052;2022-09-09T01:15:12;100385.00;;;13.13;100.00
65997;BME280;52765;52.258;21.052;2022-09-09T01:18:02;100394.44;;;13.25;100.00
65997;BME280;52765;52.258;21.052;2022-09-09T01:21:00;100381.63;;;13.19;100.00
65997;BME280;52765;52.258;21.052;2022-09-09T01:23:59;100386.13;;;13.27;100.00
65997;BME280;52765;52.258;21.052;2022-09-09T01:26:52;100368.25;;;13.18;100.00
65997;BME280;52765;52.258;21.052;2022-09-09T01:29:21;100375.19;;;13.12;100.00
65997;BME280;52765;52.258;21.052;2022-09-09T01:32:37;100362.88;;;13.09;100.00
65997;BME280;52765;52.258;21.052;2022-09-09T01:34:45;100375.72;;;13.16;100.00
65997;BME280;52765;52.258;21.052;2022-09-09T01:37:12;100361.34;;;13.07;100.00
65997;BME280;52765;52.258;21.052;2022-09-09T01:39:40;100371.31;;;13.14;100.00
65997;BME280;52765;52.258;21.052;2022-09-09T01:42:09;100355.94;;;12.99;100.00
65997;BME280;52765;52.258;21.052;2022-09-09T01:44:36;100375.06;;;12.97;100.00
65997;BME280;52765;52.258;21.052;2022-09-09T01:47:02;100365.78;;;12.91;100.00
65997;BME280;52765;52.258;21.052;2022-09-09T01:49:28;100358.00;;;12.96;100.00
65997;BME280;52765;52.258;21.052;2022-09-09T01:51:55;100383.84;;;13.07;100.00
65997;BME280;52765;52.258;21.052;2022-09-09T01:54:23;100360.38;;;12.91;100.00
65997;BME280;52765;52.258;21.052;2022-09-09T01:59:49;100362.56;;;13.04;100.00
65997;BME280;52765;52.258;21.052;2022-09-09T02:02:25;100348.38;;;12.94;100.00
65997;BME280;52765;52.258;21.052;2022-09-09T02:04:55;100376.38;;;13.18;100.00
65997;BME280;52765;52.258;21.052;2022-09-09T02:07:36;100372.31;;;13.13;100.00
65997;BME280;52765;52.258;21.052;2022-09-09T02:10:24;100383.63;;;13.17;100.00
65997;BME280;52765;52.258;21.052;2022-09-09T02:13:08;100366.09;;;12.96;100.00
65997;BME280;52765;52.258;21.052;2022-09-09T02:16:00;100371.31;;;13.06;100.00
65997;BME280;52765;52.258;21.052;2022-09-09T02:18:32;100373.03;;;12.99;100.00
65997;BME280;52765;52.258;21.052;2022-09-09T02:21:02;100365.59;;;13.01;100.00
65997;BME280;52765;52.258;21.052;2022-09-09T02:23:28;100351.91;;;12.94;100.00
65997;BME280;52765;52.258;21.052;2022-09-09T02:25:56;100368.44;;;13.08;100.00
65997;BME280;52765;52.258;21.052;2022-09-09T02:28:25;100369.59;;;13.13;100.00
65997;BME280;52765;52.258;21.052;2022-09-09T02:30:51;100349.38;;;13.01;100.00
65997;BME280;52765;52.258;21.052;2022-09-09T02:33:25;100356.41;;;13.19;100.00
65997;BME280;52765;52.258;21.052;2022-09-09T02:35:55;100349.19;;;13.11;100.00
65997;BME280;52765;52.258;21.052;2022-09-09T02:38:30;100356.94;;;13.14;100.00
65997;BME280;52765;52.258;21.052;2022-09-09T02:40:57;100367.63;;;13.07;100.00
65997;BME280;52765;52.258;21.052;2022-09-09T02:43:24;100374.19;;;13.13;100.00
65997;BME280;52765;52.258;21.052;2022-09-09T02:46:18;100367.06;;;13.20;100.00
65997;BME280;52765;52.258;21.052;2022-09-09T02:49:40;100376.22;;;13.19;100.00
65997;BME280;52765;52.258;21.052;2022-09-09T02:52:14;100379.44;;;13.14;100.00
65997;BME280;52765;52.258;21.052;2022-09-09T02:54:43;100377.22;;;13.18;100.00
65997;BME280;52765;52.258;21.052;2022-09-09T02:57:30;100373.53;;;13.11;100.00
65997;BME280;52765;52.258;21.052;2022-09-09T02:59:58;100347.84;;;12.90;100.00
65997;BME280;52765;52.258;21.052;2022-09-09T03:02:24;100375.56;;;13.01;100.00
65997;BME280;52765;52.258;21.052;2022-09-09T03:04:50;100373.03;;;12.99;100.00
65997;BME280;52765;52.258;21.052;2022-09-09T03:07:20;100366.44;;;12.93;100.00
65997;BME280;52765;52.258;21.052;2022-09-09T03:09:45;100363.91;;;12.92;100.00
65997;BME280;52765;52.258;21.052;2022-09-09T03:12:11;100388.22;;;13.08;100.00
65997;BME280;52765;52.258;21.052;2022-09-09T03:14:37;100365.78;;;12.91;100.00
65997;BME280;52765;52.258;21.052;2022-09-09T03:17:04;100358.50;;;12.92;100.00
65997;BME280;52765;52.258;21.052;2022-09-09T03:19:30;100358.66;;;12.99;100.00
65997;BME280;52765;52.258;21.052;2022-09-09T03:21:59;100357.13;;;13.04;100.00
65997;BME280;52765;52.258;21.052;2022-09-09T03:24:25;100347.66;;;13.00;100.00
65997;BME280;52765;52.258;21.052;2022-09-09T03:26:51;100344.13;;;13.08;100.00
65997;BME280;52765;52.258;21.052;2022-09-09T03:29:17;100355.25;;;13.13;100.00
65997;BME280;52765;52.258;21.052;2022-09-09T03:31:44;100375.16;;;13.20;100.00
65997;BME280;52765;52.258;21.052;2022-09-09T03:34:10;100341.25;;;13.01;100.00
65997;BME280;52765;52.258;21.052;2022-09-09T03:36:36;100348.69;;;13.07;100.00
65997;BME280;52765;52.258;21.052;2022-09-09T03:39:02;100346.31;;;13.04;100.00
65997;BME280;52765;52.258;21.052;2022-09-09T03:41:28;100366.72;;;13.15;100.00
65997;BME280;52765;52.258;21.052;2022-09-09T03:43:54;100353.72;;;13.10;100.00
65997;BME280;52765;52.258;21.052;2022-09-09T03:46:21;100357.13;;;13.12;100.00
65997;BME280;52765;52.258;21.052;2022-09-09T03:48:47;100357.47;;;13.09;100.00
65997;BME280;52765;52.258;21.052;2022-09-09T03:51:13;100339.72;;;12.99;100.00
65997;BME280;52765;52.258;21.052;2022-09-09T03:53:39;100337.19;;;12.97;100.00
65997;BME280;52765;52.258;21.052;2022-09-09T03:56:05;100350.34;;;13.08;100.00
65997;BME280;52765;52.258;21.052;2022-09-09T03:58:35;100357.44;;;13.18;100.00
65997;BME280;52765;52.258;21.052;2022-09-09T04:01:08;100372.78;;;13.33;100.00
65997;BME280;52765;52.258;21.052;2022-09-09T04:03:36;100372.97;;;13.32;100.00
65997;BME280;52765;52.258;21.052;2022-09-09T04:06:03;100368.06;;;13.27;100.00
65997;BME280;52765;52.258;21.052;2022-09-09T04:08:30;100359.81;;;13.21;100.00
65997;BME280;52765;52.258;21.052;2022-09-09T04:10:59;100364.00;;;13.23;100.00
65997;BME280;52765;52.258;21.052;2022-09-09T04:13:28;100348.66;;;13.16;100.00
65997;BME280;52765;52.258;21.052;2022-09-09T04:15:55;100369.41;;;13.23;100.00
65997;BME280;52765;52.258;21.052;2022-09-09T04:18:22;100354.41;;;13.12;100.00
65997;BME280;52765;52.258;21.052;2022-09-09T04:20:48;100371.28;;;13.23;100.00
65997;BME280;52765;52.258;21.052;2022-09-09T04:23:15;100360.50;;;13.14;100.00
65997;BME280;52765;52.258;21.052;2022-09-09T04:25:49;100366.38;;;13.26;100.00
65997;BME280;52765;52.258;21.052;2022-09-09T04:28:16;100350.34;;;13.17;100.00
65997;BME280;52765;52.258;21.052;2022-09-09T04:30:43;100369.91;;;13.27;100.00
65997;BME280;52765;52.258;21.052;2022-09-09T04:33:12;100364.16;;;13.30;100.00
65997;BME280;52765;52.258;21.052;2022-09-09T04:35:38;100348.09;;;13.28;100.00
65997;BME280;52765;52.258;21.052;2022-09-09T04:38:09;100366.19;;;13.36;100.00
65997;BME280;52765;52.258;21.052;2022-09-09T04:40:37;100341.56;;;13.14;100.00
65997;BME280;52765;52.258;21.052;2022-09-09T04:43:08;100366.88;;;13.22;100.00
65997;BME280;52765;52.258;21.052;2022-09-09T04:45:34;100376.69;;;13.23;100.00
65997;BME280;52765;52.258;21.052;2022-09-09T04:48:00;100357.13;;;13.12;100.00
65997;BME280;52765;52.258;21.052;2022-09-09T04:50:26;100370.94;;;13.26;100.00
65997;BME280;52765;52.258;21.052;2022-09-09T04:52:51;100378.50;;;13.30;100.00
65997;BME280;52765;52.258;21.052;2022-09-09T04:55:17;100358.75;;;13.22;100.00
65997;BME280;52765;52.258;21.052;2022-09-09T04:57:45;100393.75;;;13.40;100.00
65997;BME280;52765;52.258;21.052;2022-09-09T05:00:11;100375.66;;;13.32;100.00
65997;BME280;52765;52.258;21.052;2022-09-09T05:02:38;100393.75;;;13.40;100.00
65997;BME280;52765;52.258;21.052;2022-09-09T05:05:05;100370.94;;;13.26;100.00
65997;BME280;52765;52.258;21.052;2022-09-09T05:07:31;100402.72;;;13.32;100.00
65997;BME280;52765;52.258;21.052;2022-09-09T05:09:56;100394.09;;;13.28;100.00
65997;BME280;52765;52.258;21.052;2022-09-09T05:12:23;100381.28;;;13.14;100.00
65997;BME280;52765;52.258;21.052;2022-09-09T05:14:51;100390.56;;;13.20;100.00
65997;BME280;52765;52.258;21.052;2022-09-09T05:17:16;100379.44;;;13.14;100.00
65997;BME280;52765;52.258;21.052;2022-09-09T05:19:43;100383.44;;;13.27;100.00
65997;BME280;52765;52.258;21.052;2022-09-09T05:22:09;100367.22;;;13.19;100.00
65997;BME280;52765;52.258;21.052;2022-09-09T05:24:40;100394.59;;;13.32;100.00
65997;BME280;52765;52.258;21.052;2022-09-09T05:27:05;100376.22;;;13.19;100.00
65997;BME280;52765;52.258;21.052;2022-09-09T05:29:32;100395.31;;;13.34;100.00
65997;BME280;52765;52.258;21.052;2022-09-09T05:31:59;100385.66;;;13.23;100.00
65997;BME280;52765;52.258;21.052;2022-09-09T05:34:24;100385.97;;;13.28;100.00
65997;BME280;52765;52.258;21.052;2022-09-09T05:36:50;100395.44;;;13.41;100.00
65997;BME280;52765;52.258;21.052;2022-09-09T05:39:17;100396.59;;;13.46;100.00
65997;BME280;52765;52.258;21.052;2022-09-09T05:41:42;100383.94;;;13.39;100.00
65997;BME280;52765;52.258;21.052;2022-09-09T05:44:08;100383.06;;;13.46;100.00
65997;BME280;52765;52.258;21.052;2022-09-09T05:46:33;100362.28;;;13.30;100.00
65997;BME280;52765;52.258;21.052;2022-09-09T05:49:01;100397.94;;;13.50;100.00
65997;BME280;52765;52.258;21.052;2022-09-09T05:51:28;100390.66;;;13.51;100.00
65997;BME280;52765;52.258;21.052;2022-09-09T05:53:57;100403.69;;;13.56;100.00
65997;BME280;52765;52.258;21.052;2022-09-09T05:56:28;100395.75;;;13.54;100.00
65997;BME280;52765;52.258;21.052;2022-09-09T05:58:54;100397.38;;;13.63;100.00
65997;BME280;52765;52.258;21.052;2022-09-09T06:01:25;100403.28;;;13.67;100.00
65997;BME280;52765;52.258;21.052;2022-09-09T06:03:52;100392.84;;;13.56;100.00
65997;BME280;52765;52.258;21.052;2022-09-09T06:06:23;100404.97;;;13.68;100.00
65997;BME280;52765;52.258;21.052;2022-09-09T06:08:58;100386.41;;;13.57;100.00
65997;BME280;52765;52.258;21.052;2022-09-09T06:11:29;100390.94;;;13.64;100.00
65997;BME280;52765;52.258;21.052;2022-09-09T06:13:57;100399.03;;;13.73;100.00
65997;BME280;52765;52.258;21.052;2022-09-09T06:16:25;100414.38;;;13.80;100.00
65997;BME280;52765;52.258;21.052;2022-09-09T06:18:55;100410.66;;;13.81;100.00
65997;BME280;52765;52.258;21.052;2022-09-09T06:23:47;100413.53;;;13.80;100.00
65997;BME280;52765;52.258;21.052;2022-09-09T06:26:18;100404.59;;;13.79;100.00
65997;BME280;52765;52.258;21.052;2022-09-09T06:28:45;100398.53;;;13.77;100.00
65997;BME280;52765;52.258;21.052;2022-09-09T06:31:14;100428.91;;;13.87;100.00
65997;BME280;52765;52.258;21.052;2022-09-09T06:33:42;100407.00;;;13.74;100.00
65997;BME280;52765;52.258;21.052;2022-09-09T06:36:13;100409.66;;;13.82;100.00
65997;BME280;52765;52.258;21.052;2022-09-09T06:38:40;100419.78;;;13.80;100.00
65997;BME280;52765;52.258;21.052;2022-09-09T06:41:08;100406.09;;;13.82;100.00
65997;BME280;52765;52.258;21.052;2022-09-09T06:43:34;100419.22;;;13.93;100.00
65997;BME280;52765;52.258;21.052;2022-09-09T06:46:09;100420.38;;;13.99;100.00
65997;BME280;52765;52.258;21.052;2022-09-09T06:48:36;100410.31;;;13.84;100.00
65997;BME280;52765;52.258;21.052;2022-09-09T06:51:22;100407.03;;;13.97;100.00
65997;BME280;52765;52.258;21.052;2022-09-09T06:53:52;100409.06;;;13.95;100.00
65997;BME280;52765;52.258;21.052;2022-09-09T06:56:21;100430.50;;;14.05;100.00
65997;BME280;52765;52.258;21.052;2022-09-09T06:58:49;100426.50;;;14.01;100.00
65997;BME280;52765;52.258;21.052;2022-09-09T07:01:16;100426.97;;;14.04;100.00
65997;BME280;52765;52.258;21.052;2022-09-09T07:03:45;100429.84;;;14.03;100.00
65997;BME280;52765;52.258;21.052;2022-09-09T07:06:20;100419.72;;;13.97;100.00
65997;BME280;52765;52.258;21.052;2022-09-09T07:08:51;100433.53;;;14.10;100.00
65997;BME280;52765;52.258;21.052;2022-09-09T07:11:20;100425.97;;;14.05;100.00
65997;BME280;52765;52.258;21.052;2022-09-09T07:13:46;100414.78;;;14.00;100.00
65997;BME280;52765;52.258;21.052;2022-09-09T07:16:17;100430.34;;;14.06;100.00
65997;BME280;52765;52.258;21.052;2022-09-09T07:18:42;100436.59;;;14.07;100.00
65997;BME280;52765;52.258;21.052;2022-09-09T07:21:13;100421.06;;;14.01;100.00
65997;BME280;52765;52.258;21.052;2022-09-09T07:23:41;100429.69;;;14.04;100.00
65997;BME280;52765;52.258;21.052;2022-09-09T07:26:15;100449.78;;;14.10;100.00
65997;BME280;52765;52.258;21.052;2022-09-09T07:28:41;100447.81;;;14.04;100.00
65997;BME280;52765;52.258;21.052;2022-09-09T07:31:16;100437.16;;;14.02;100.00
65997;BME280;52765;52.258;21.052;2022-09-09T07:33:43;100442.75;;;14.01;100.00
65997;BME280;52765;52.258;21.052;2022-09-09T07:38:42;100465.66;;;14.21;100.00
65997;BME280;52765;52.258;21.052;2022-09-09T07:41:17;100451.25;;;14.21;100.00
65997;BME280;52765;52.258;21.052;2022-09-09T07:43:44;100444.00;;;14.13;100.00
65997;BME280;52765;52.258;21.052;2022-09-09T07:46:12;100466.13;;;14.25;100.00
65997;BME280;52765;52.258;21.052;2022-09-09T07:48:38;100456.84;;;14.19;100.00
65997;BME280;52765;52.258;21.052;2022-09-09T07:51:11;100457.00;;;14.26;100.00
65997;BME280;52765;52.258;21.052;2022-09-09T07:53:40;100459.53;;;14.28;100.00
65997;BME280;52765;52.258;21.052;2022-09-09T07:56:08;100466.59;;;14.29;100.00
65997;BME280;52765;52.258;21.052;2022-09-09T07:58:38;100472.34;;;14.34;100.00
65997;BME280;52765;52.258;21.052;2022-09-09T08:01:10;100471.44;;;14.41;100.00
65997;BME280;52765;52.258;21.052;2022-09-09T08:03:37;100472.66;;;14.39;100.00
65997;BME280;52765;52.258;21.052;2022-09-09T08:06:05;100468.63;;;14.35;100.00
65997;BME280;52765;52.258;21.052;2022-09-09T08:08:32;100451.69;;;14.33;100.00
65997;BME280;52765;52.258;21.052;2022-09-09T08:11:08;100472.09;;;14.43;100.00
65997;BME280;52765;52.258;21.052;2022-09-09T08:13:36;100484.28;;;14.48;100.00
65997;BME280;52765;52.258;21.052;2022-09-09T08:16:12;100460.47;;;14.35;100.00
65997;BME280;52765;52.258;21.052;2022-09-09T08:18:39;100461.88;;;14.31;100.00
65997;BME280;52765;52.258;21.052;2022-09-09T08:21:10;100479.09;;;14.38;100.00
65997;BME280;52765;52.258;21.052;2022-09-09T08:23:40;100493.91;;;14.50;100.00
65997;BME280;52765;52.258;21.052;2022-09-09T08:26:13;100483.13;;;14.42;100.00
65997;BME280;52765;52.258;21.052;2022-09-09T08:28:41;100496.69;;;14.42;100.00
65997;BME280;52765;52.258;21.052;2022-09-09T08:31:13;100481.81;;;14.38;100.00
65997;BME280;52765;52.258;21.052;2022-09-09T08:33:40;100499.03;;;14.45;100.00
65997;BME280;52765;52.258;21.052;2022-09-09T08:36:09;100498.84;;;14.47;100.00
65997;BME280;52765;52.258;21.052;2022-09-09T08:38:36;100507.97;;;14.54;100.00
65997;BME280;52765;52.258;21.052;2022-09-09T08:44:16;100503.94;;;14.50;100.00
65997;BME280;52765;52.258;21.052;2022-09-09T08:46:52;100504.75;;;14.50;100.00
65997;BME280;52765;52.258;21.052;2022-09-09T08:55:22;100496.75;;;14.57;100.00
65997;BME280;52765;52.258;21.052;2022-09-09T08:57:54;100491.16;;;14.58;100.00
65997;BME280;52765;52.258;21.052;2022-09-09T09:00:21;100495.75;;;14.58;100.00
65997;BME280;52765;52.258;21.052;2022-09-09T09:03:22;100505.00;;;14.72;100.00
65997;BME280;52765;52.258;21.052;2022-09-09T09:11:38;100504.56;;;14.83;100.00
65997;BME280;52765;52.258;21.052;2022-09-09T09:14:11;100518.25;;;14.90;100.00
65997;BME280;52765;52.258;21.052;2022-09-09T09:17:01;100520.31;;;14.88;100.00
65997;BME280;52765;52.258;21.052;2022-09-09T09:19:29;100517.47;;;14.81;100.00
65997;BME280;52765;52.258;21.052;2022-09-09T09:24:56;100521.56;;;14.77;100.00
65997;BME280;52765;52.258;21.052;2022-09-09T09:29:58;100530.75;;;14.76;100.00
65997;BME280;52765;52.258;21.052;2022-09-09T09:32:26;100532.22;;;14.78;100.00
65997;BME280;52765;52.258;21.052;2022-09-09T09:34:56;100535.13;;;14.77;100.00
65997;BME280;52765;52.258;21.052;2022-09-09T09:37:31;100531.41;;;14.78;100.00
65997;BME280;52765;52.258;21.052;2022-09-09T09:40:12;100535.25;;;14.84;100.00
65997;BME280;52765;52.258;21.052;2022-09-09T09:42:38;100519.03;;;14.75;100.00
65997;BME280;52765;52.258;21.052;2022-09-09T09:48:05;100534.88;;;14.87;100.00
65997;BME280;52765;52.258;21.052;2022-09-09T09:50:31;100537.53;;;14.95;100.00
65997;BME280;52765;52.258;21.052;2022-09-09T09:53:03;100526.94;;;14.85;100.00
65997;BME280;52765;52.258;21.052;2022-09-09T09:55:33;100532.59;;;14.98;100.00
65997;BME280;52765;52.258;21.052;2022-09-09T09:58:05;100519.03;;;14.98;100.00
65997;BME280;52765;52.258;21.052;2022-09-09T10:00:32;100536.94;;;15.08;100.00
65997;BME280;52765;52.258;21.052;2022-09-09T10:02:59;100542.84;;;15.11;100.00
65997;BME280;52765;52.258;21.052;2022-09-09T10:05:27;100535.19;;;15.15;100.00
65997;BME280;52765;52.258;21.052;2022-09-09T10:08:19;100504.56;;;15.06;100.00
65997;BME280;52765;52.258;21.052;2022-09-09T10:20:04;100538.34;;;15.42;100.00
65997;BME280;52765;52.258;21.052;2022-09-09T10:22:44;100549.19;;;15.42;100.00
65997;BME280;52765;52.258;21.052;2022-09-09T10:30:54;100555.38;;;15.35;100.00
65997;BME280;52765;52.258;21.052;2022-09-09T10:33:44;100564.19;;;15.38;100.00
65997;BME280;52765;52.258;21.052;2022-09-09T10:36:25;100563.53;;;15.35;100.00
65997;BME280;52765;52.258;21.052;2022-09-09T10:39:01;100566.88;;;15.38;100.00
65997;BME280;52765;52.258;21.052;2022-09-09T10:41:43;100559.19;;;15.26;100.00
65997;BME280;52765;52.258;21.052;2022-09-09T10:55:02;100598.13;;;15.33;100.00
65997;BME280;52765;52.258;21.052;2022-09-09T10:57:44;100583.00;;;15.16;100.00
65997;BME280;52765;52.258;21.052;2022-09-09T11:00:23;100605.59;;;15.31;100.00
65997;BME280;52765;52.258;21.052;2022-09-09T11:03:01;100582.94;;;15.24;100.00
65997;BME280;52765;52.258;21.052;2022-09-09T11:05:42;100605.72;;;15.38;100.00
65997;BME280;52765;52.258;21.052;2022-09-09T11:08:14;100608.50;;;15.30;100.00
65997;BME280;52765;52.258;21.052;2022-09-09T11:10:51;100610.31;;;15.38;100.00
65997;BME280;52765;52.258;21.052;2022-09-09T11:16:29;100615.22;;;15.42;100.00
65997;BME280;52765;52.258;21.052;2022-09-09T11:19:19;100605.53;;;15.40;100.00
65997;BME280;52765;52.258;21.052;2022-09-09T11:21:48;100617.63;;;15.37;100.00
65997;BME280;52765;52.258;21.052;2022-09-09T11:24:28;100614.81;;;15.45;100.00
65997;BME280;52765;52.258;21.052;2022-09-09T11:27:27;100615.50;;;15.47;100.00
65997;BME280;52765;52.258;21.052;2022-09-09T11:41:16;100614.88;;;15.60;100.00
65997;BME280;52765;52.258;21.052;2022-09-09T11:43:44;100616.97;;;15.73;100.00
65997;BME280;52765;52.258;21.052;2022-09-09T11:46:13;100617.47;;;15.77;100.00
65997;BME280;52765;52.258;21.052;2022-09-09T11:48:42;100621.69;;;15.79;100.00
65997;BME280;52765;52.258;21.052;2022-09-09T11:53:54;100609.59;;;15.82;100.00
65997;BME280;52765;52.258;21.052;2022-09-09T11:56:34;100617.38;;;15.85;100.00
65997;BME280;52765;52.258;21.052;2022-09-09T12:02:01;100610.84;;;15.94;100.00
65997;BME280;52765;52.258;21.052;2022-09-09T12:04:33;100608.22;;;15.86;100.00
65997;BME280;52765;52.258;21.052;2022-09-09T12:09:50;100619.44;;;15.83;100.00
65997;BME280;52765;52.258;21.052;2022-09-09T12:17:44;100621.34;;;15.82;100.00
65997;BME280;52765;52.258;21.052;2022-09-09T12:26:00;100626.75;;;15.82;100.00
65997;BME280;52765;52.258;21.052;2022-09-09T12:31:29;100625.09;;;15.73;100.00
65997;BME280;52765;52.258;21.052;2022-09-09T12:34:08;100615.72;;;15.61;100.00
65997;BME280;52765;52.258;21.052;2022-09-09T12:36:35;100625.72;;;15.60;100.00
65997;BME280;52765;52.258;21.052;2022-09-09T12:39:22;100612.66;;;15.64;100.00
65997;BME280;52765;52.258;21.052;2022-09-09T12:41:53;100618.63;;;15.59;100.00
65997;BME280;52765;52.258;21.052;2022-09-09T12:44:29;100613.78;;;15.69;100.00
65997;BME280;52765;52.258;21.052;2022-09-09T12:46:58;100615.63;;;15.77;100.00
65997;BME280;52765;52.258;21.052;2022-09-09T12:49:29;100628.06;;;15.86;100.00
65997;BME280;52765;52.258;21.052;2022-09-09T12:52:01;100615.72;;;15.84;100.00
65997;BME280;52765;52.258;21.052;2022-09-09T12:54:28;100605.41;;;15.79;100.00
65997;BME280;52765;52.258;21.052;2022-09-09T12:56:54;100607.00;;;15.88;100.00
65997;BME280;52765;52.258;21.052;2022-09-09T12:59:26;100618.63;;;15.97;100.00
65997;BME280;52765;52.258;21.052;2022-09-09T13:01:59;100597.63;;;15.91;100.00
65997;BME280;52765;52.258;21.052;2022-09-09T13:04:25;100611.22;;;15.91;100.00
65997;BME280;52765;52.258;21.052;2022-09-09T13:06:50;100606.16;;;15.88;100.00
65997;BME280;52765;52.258;21.052;2022-09-09T13:09:18;100620.03;;;15.93;100.00
65997;BME280;52765;52.258;21.052;2022-09-09T13:11:49;100608.94;;;15.80;100.00
65997;BME280;52765;52.258;21.052;2022-09-09T13:14:30;100614.84;;;15.83;100.00
65997;BME280;52765;52.258;21.052;2022-09-09T13:17:02;100617.09;;;15.80;100.00
65997;BME280;52765;52.258;21.052;2022-09-09T13:19:32;100619.16;;;15.78;100.00
65997;BME280;52765;52.258;21.052;2022-09-09T13:22:14;100588.94;;;15.58;100.00
65997;BME280;52765;52.258;21.052;2022-09-09T13:24:44;100615.94;;;15.74;100.00
65997;BME280;52765;52.258;21.052;2022-09-09T13:27:26;100604.97;;;15.67;100.00
65997;BME280;52765;52.258;21.052;2022-09-09T13:29:54;100614.75;;;15.77;100.00
65997;BME280;52765;52.258;21.052;2022-09-09T13:32:21;100591.75;;;15.64;100.00
65997;BME280;52765;52.258;21.052;2022-09-09T13:35:22;100609.78;;;15.80;100.00
65997;BME280;52765;52.258;21.052;2022-09-09T13:37:47;100604.56;;;15.79;100.00
65997;BME280;52765;52.258;21.052;2022-09-09T13:40:18;100592.34;;;15.75;100.00
65997;BME280;52765;52.258;21.052;2022-09-09T13:42:44;100605.25;;;15.72;100.00
65997;BME280;52765;52.258;21.052;2022-09-09T13:45:18;100602.22;;;15.76;100.00
65997;BME280;52765;52.258;21.052;2022-09-09T13:47:47;100605.63;;;15.69;100.00
65997;BME280;52765;52.258;21.052;2022-09-09T13:50:28;100607.13;;;15.72;100.00
65997;BME280;52765;52.258;21.052;2022-09-09T13:52:56;100610.00;;;15.56;100.00
65997;BME280;52765;52.258;21.052;2022-09-09T13:55:25;100605.94;;;15.51;100.00
65997;BME280;52765;52.258;21.052;2022-09-09T13:57:58;100604.66;;;15.47;100.00
65997;BME280;52765;52.258;21.052;2022-09-09T14:00:28;100611.56;;;15.50;100.00
65997;BME280;52765;52.258;21.052;2022-09-09T14:02:55;100622.91;;;15.53;100.00
65997;BME280;52765;52.258;21.052;2022-09-09T14:05:21;100621.78;;;15.48;100.00
65997;BME280;52765;52.258;21.052;2022-09-09T14:07:48;100621.78;;;15.48;100.00
65997;BME280;52765;52.258;21.052;2022-09-09T14:10:14;100622.97;;;15.45;100.00
65997;BME280;52765;52.258;21.052;2022-09-09T14:12:40;100602.34;;;15.36;100.00
65997;BME280;52765;52.258;21.052;2022-09-09T14:15:07;100614.53;;;15.40;100.00
65997;BME280;52765;52.258;21.052;2022-09-09T14:17:34;100617.16;;;15.48;100.00
65997;BME280;52765;52.258;21.052;2022-09-09T14:20:03;100617.00;;;15.50;100.00
65997;BME280;52765;52.258;21.052;2022-09-09T14:22:30;100622.13;;;15.45;100.00
65997;BME280;52765;52.258;21.052;2022-09-09T14:24:56;100621.13;;;15.46;100.00
65997;BME280;52765;52.258;21.052;2022-09-09T14:27:22;100612.69;;;15.41;100.00
65997;BME280;52765;52.258;21.052;2022-09-09T14:29:48;100625.31;;;15.48;100.00
65997;BME280;52765;52.258;21.052;2022-09-09T14:32:14;100615.03;;;15.44;100.00
65997;BME280;52765;52.258;21.052;2022-09-09T14:34:39;100623.19;;;15.44;100.00